Time;durP1;ratioP1;P1;durP2;ratioP2;P2;SDS_P1;SDS_P2;PMS_P1;PMS_P2;Temp;Humidity;BMP_temperature;BMP_pressure;BME280_temperature;BME280_humidity;BME280_pressure;Samples;Min_cycle;Max_cycle;Signal;HPM_P1;HPM_P2
2023/04/11 00:00:51;;;;;;;6.55;2.30;;;10.90;80.20;;;;;;5088335;28;20024;-67
2023/04/11 00:03:18;;;;;;;7.28;2.70;;;10.90;80.60;;;;;;5088550;28;20023;-66
2023/04/11 00:05:45;;;;;;;10.27;3.05;;;10.90;81.80;;;;;;5091522;28;20111;-67
2023/04/11 00:08:10;;;;;;;7.78;2.90;;;10.90;81.60;;;;;;5085987;28;20095;-66
2023/04/11 00:10:36;;;;;;;11.40;3.47;;;10.90;81.80;;;;;;5084887;28;20506;-67
2023/04/11 00:13:01;;;;;;;13.75;3.53;;;10.90;82.00;;;;;;5085888;28;20122;-68
2023/04/11 00:15:27;;;;;;;13.73;3.20;;;10.90;82.50;;;;;;5085001;28;20505;-66
2023/04/11 00:17:53;;;;;;;11.73;3.55;;;10.90;82.80;;;;;;5085907;28;20104;-66
2023/04/11 00:20:19;;;;;;;12.40;3.42;;;11.00;83.10;;;;;;5090476;28;20024;-66
2023/04/11 00:22:45;;;;;;;15.38;4.28;;;11.00;83.30;;;;;;5075809;28;20040;-66
2023/04/11 00:25:11;;;;;;;13.77;4.38;;;11.00;83.90;;;;;;5084198;28;20021;-66
2023/04/11 00:27:36;;;;;;;11.25;3.70;;;11.00;84.60;;;;;;5082430;28;20517;-67
2023/04/11 00:30:04;;;;;;;14.85;4.20;;;11.00;84.60;;;;;;5086756;28;20505;-68
2023/04/11 00:32:29;;;;;;;16.17;4.30;;;11.00;84.80;;;;;;5086745;28;20051;-66
2023/04/11 00:34:55;;;;;;;12.73;4.45;;;11.10;84.90;;;;;;5088370;28;20133;-67
2023/04/11 00:37:21;;;;;;;18.63;4.93;;;11.10;85.30;;;;;;5087919;28;20028;-68
2023/04/11 00:39:51;;;;;;;19.02;5.13;;;11.10;85.40;;;;;;5086550;28;20051;-68
2023/04/11 00:42:18;;;;;;;14.10;4.00;;;11.10;85.60;;;;;;5087202;28;20028;-67
2023/04/11 00:44:43;;;;;;;16.52;4.05;;;11.10;85.70;;;;;;5093154;28;20024;-66
2023/04/11 00:47:10;;;;;;;15.95;4.50;;;11.10;85.80;;;;;;5080587;28;20115;-67
2023/04/11 00:49:36;;;;;;;14.95;4.72;;;11.10;85.90;;;;;;5089178;28;20020;-67
2023/04/11 00:52:02;;;;;;;18.02;4.55;;;11.10;86.00;;;;;;5085291;28;20056;-66
2023/04/11 00:54:29;;;;;;;18.23;4.63;;;11.10;86.00;;;;;;5087121;28;20020;-66
2023/04/11 00:57:01;;;;;;;17.73;4.70;;;11.00;86.20;;;;;;5091032;28;20024;-67
2023/04/11 00:59:28;;;;;;;15.75;4.15;;;11.00;86.10;;;;;;5076255;28;20145;-67
2023/04/11 01:01:54;;;;;;;16.90;4.30;;;11.00;86.20;;;;;;5080411;28;20403;-69
2023/04/11 01:04:22;;;;;;;18.90;4.68;;;11.00;86.40;;;;;;5072387;28;20038;-66
2023/04/11 01:06:53;;;;;;;16.83;4.50;;;11.00;86.50;;;;;;5086025;28;20058;-66
2023/04/11 01:09:22;;;;;;;18.05;5.70;;;10.90;86.60;;;;;;5082569;28;20111;-67
2023/04/11 01:11:49;;;;;;;17.00;4.88;;;10.90;86.70;;;;;;5075517;28;20155;-67
2023/04/11 01:14:17;;;;;;;17.67;4.80;;;10.80;86.70;;;;;;5089841;28;20023;-67
2023/04/11 01:16:45;;;;;;;17.88;4.88;;;10.80;87.10;;;;;;5086644;28;20032;-67
2023/04/11 01:19:20;;;;;;;20.67;4.70;;;10.80;87.20;;;;;;5089764;28;20107;-67
2023/04/11 01:21:47;;;;;;;17.33;4.03;;;10.70;87.50;;;;;;5091251;28;20020;-69
2023/04/11 01:24:13;;;;;;;16.00;4.07;;;10.70;87.50;;;;;;5089202;28;20028;-69
2023/04/11 01:26:38;;;;;;;14.88;4.03;;;10.70;87.60;;;;;;5087502;28;20245;-67
2023/04/11 01:29:04;;;;;;;23.35;5.25;;;10.80;87.60;;;;;;5084533;28;20069;-68
2023/04/11 01:31:31;;;;;;;18.00;4.63;;;10.80;87.50;;;;;;5079501;28;20474;-69
2023/04/11 01:33:57;;;;;;;15.70;3.72;;;10.80;87.50;;;;;;5085848;28;20095;-67
2023/04/11 01:36:23;;;;;;;17.30;4.57;;;10.80;87.40;;;;;;5082353;28;20025;-68
2023/04/11 01:38:48;;;;;;;14.90;3.70;;;10.70;87.30;;;;;;5077692;28;20052;-67
2023/04/11 01:41:16;;;;;;;16.55;3.70;;;10.70;87.40;;;;;;5072734;28;20055;-67
2023/04/11 01:43:42;;;;;;;18.83;4.22;;;10.70;87.30;;;;;;5074043;28;20024;-68
2023/04/11 01:46:10;;;;;;;20.70;4.30;;;10.70;87.30;;;;;;5079606;28;20016;-66
2023/04/11 01:48:36;;;;;;;16.85;4.30;;;10.70;87.40;;;;;;5081495;28;20024;-68
2023/04/11 01:51:02;;;;;;;16.15;4.47;;;10.70;87.30;;;;;;5089596;28;20158;-68
2023/04/11 01:53:27;;;;;;;22.08;4.28;;;10.60;87.50;;;;;;5071412;28;20103;-67
2023/04/11 01:55:53;;;;;;;19.73;4.57;;;10.60;87.70;;;;;;5077400;28;20023;-66
2023/04/11 01:58:18;;;;;;;18.40;4.07;;;10.60;87.70;;;;;;5086576;28;20042;-68
2023/04/11 02:00:44;;;;;;;21.65;4.60;;;10.50;87.60;;;;;;5072478;28;20575;-66
2023/04/11 02:03:10;;;;;;;17.50;4.32;;;10.50;87.60;;;;;;5074492;28;20026;-67
2023/04/11 02:05:35;;;;;;;20.05;4.78;;;10.50;87.60;;;;;;5081756;28;20023;-67
2023/04/11 02:08:01;;;;;;;16.65;4.15;;;10.40;88.20;;;;;;5079885;28;20122;-67
2023/04/11 02:10:26;;;;;;;19.63;3.97;;;10.40;87.90;;;;;;5087214;28;20016;-67
2023/04/11 02:12:52;;;;;;;15.77;3.53;;;10.40;87.90;;;;;;5080846;28;20389;-66
2023/04/11 02:15:17;;;;;;;14.63;3.75;;;10.40;87.90;;;;;;5081596;28;20134;-67
2023/04/11 02:17:43;;;;;;;19.85;4.05;;;10.40;87.90;;;;;;5088586;28;20016;-67
2023/04/11 02:20:11;;;;;;;21.45;4.72;;;10.30;88.00;;;;;;5089865;28;20604;-68
2023/04/11 02:22:36;;;;;;;18.60;3.60;;;10.30;88.20;;;;;;5076708;28;20039;-69
2023/04/11 02:25:02;;;;;;;21.52;4.47;;;10.20;88.40;;;;;;5082094;28;20036;-67
2023/04/11 02:27:27;;;;;;;17.67;4.28;;;10.30;88.60;;;;;;5085072;28;20024;-68
2023/04/11 02:29:53;;;;;;;24.58;4.63;;;10.20;88.70;;;;;;5081973;28;20052;-66
2023/04/11 02:32:19;;;;;;;16.73;3.70;;;10.20;88.80;;;;;;5075219;28;20048;-67
2023/04/11 02:34:44;;;;;;;22.92;4.53;;;10.20;88.70;;;;;;5076155;28;20400;-68
2023/04/11 02:37:10;;;;;;;17.30;3.78;;;10.20;88.70;;;;;;5077020;28;20077;-70
2023/04/11 02:39:35;;;;;;;17.73;4.63;;;10.20;88.50;;;;;;5087681;28;20114;-67
2023/04/11 02:42:01;;;;;;;20.13;4.28;;;10.20;88.40;;;;;;5085998;28;20035;-68
2023/04/11 02:44:28;;;;;;;17.45;4.45;;;10.20;88.50;;;;;;5077247;28;20028;-68
2023/04/11 02:46:53;;;;;;;16.17;4.07;;;10.20;88.40;;;;;;5081010;28;20031;-67
2023/04/11 02:49:19;;;;;;;15.20;3.55;;;10.30;88.40;;;;;;5078651;28;20111;-66
2023/04/11 02:51:44;;;;;;;19.98;4.00;;;10.20;88.20;;;;;;5086953;28;20020;-70
2023/04/11 02:54:10;;;;;;;15.48;3.00;;;10.20;87.90;;;;;;5077360;28;20028;-66
2023/04/11 02:56:37;;;;;;;13.93;2.83;;;10.20;87.40;;;;;;5089094;28;20024;-66
2023/04/11 02:59:04;;;;;;;10.90;2.70;;;10.20;86.90;;;;;;5086650;28;20031;-68
2023/04/11 03:01:30;;;;;;;12.07;2.63;;;10.20;86.40;;;;;;5087870;28;20024;-66
2023/04/11 03:03:55;;;;;;;11.88;2.72;;;10.20;86.10;;;;;;5078626;28;20024;-68
2023/04/11 03:06:22;;;;;;;13.18;2.97;;;10.10;85.70;;;;;;5079049;28;20024;-68
2023/04/11 03:08:48;;;;;;;11.32;2.90;;;10.10;85.40;;;;;;5078675;28;20012;-68
2023/04/11 03:11:15;;;;;;;11.77;2.35;;;10.10;85.30;;;;;;5078244;28;20024;-68
2023/04/11 03:13:41;;;;;;;13.48;2.83;;;10.10;85.20;;;;;;5082054;28;20516;-66
2023/04/11 03:16:07;;;;;;;12.43;3.22;;;10.10;85.00;;;;;;5077733;28;20078;-68
2023/04/11 03:18:33;;;;;;;10.38;2.78;;;10.10;84.90;;;;;;5080375;28;20024;-67
2023/04/11 03:20:59;;;;;;;11.95;2.75;;;10.20;84.80;;;;;;5086886;28;20032;-66
2023/04/11 03:23:25;;;;;;;8.43;2.28;;;10.20;84.70;;;;;;5085085;28;20589;-67
2023/04/11 03:25:52;;;;;;;9.30;2.75;;;10.20;84.70;;;;;;5080316;28;20055;-67
2023/04/11 03:28:18;;;;;;;10.85;2.67;;;10.20;84.60;;;;;;5085641;28;20051;-68
2023/04/11 03:30:45;;;;;;;10.27;2.42;;;10.20;84.60;;;;;;5088327;28;20497;-68
2023/04/11 03:33:10;;;;;;;8.25;2.08;;;10.20;84.70;;;;;;5077541;28;20028;-69
2023/04/11 03:35:36;;;;;;;9.88;2.10;;;10.30;84.70;;;;;;5086512;28;20489;-67
2023/04/11 03:38:02;;;;;;;11.35;3.00;;;10.30;84.70;;;;;;5083891;28;20046;-68
2023/04/11 03:40:28;;;;;;;10.73;2.55;;;10.30;84.60;;;;;;5089749;28;20020;-67
2023/04/11 03:42:54;;;;;;;13.90;3.53;;;10.30;84.70;;;;;;5078108;28;20028;-66
2023/04/11 03:45:20;;;;;;;8.65;2.40;;;10.20;85.00;;;;;;5075639;28;20036;-67
2023/04/11 03:47:45;;;;;;;14.75;2.70;;;10.20;85.20;;;;;;5084677;28;20040;-68
2023/04/11 03:50:11;;;;;;;13.05;2.70;;;10.20;85.30;;;;;;5076085;28;20070;-66
2023/04/11 03:52:36;;;;;;;11.48;3.00;;;10.10;85.30;;;;;;5077522;28;20032;-68
2023/04/11 03:55:04;;;;;;;8.00;2.30;;;10.00;85.20;;;;;;5091839;28;20052;-68
2023/04/11 03:57:31;;;;;;;12.05;2.97;;;10.00;85.30;;;;;;5082427;28;20023;-67
2023/04/11 03:59:57;;;;;;;10.43;2.55;;;10.00;85.30;;;;;;5072406;28;20437;-67
2023/04/11 04:02:22;;;;;;;12.10;2.40;;;9.90;85.30;;;;;;5073715;28;20097;-66
2023/04/11 04:04:57;;;;;;;10.00;2.55;;;9.90;85.10;;;;;;5088313;28;20482;-68
2023/04/11 04:07:23;;;;;;;9.27;2.20;;;9.90;85.10;;;;;;5082049;28;20390;-66
2023/04/11 04:09:50;;;;;;;6.97;2.25;;;9.90;84.90;;;;;;5088267;28;20032;-66
2023/04/11 04:12:18;;;;;;;9.68;2.33;;;9.90;84.70;;;;;;5073158;28;20438;-67
2023/04/11 04:14:44;;;;;;;7.32;2.30;;;9.90;84.50;;;;;;5088203;28;20020;-68
2023/04/11 04:17:12;;;;;;;10.13;2.30;;;9.90;84.40;;;;;;5090170;28;20024;-66
2023/04/11 04:19:38;;;;;;;8.88;2.22;;;9.90;84.20;;;;;;5084258;28;20027;-66
2023/04/11 04:22:04;;;;;;;5.78;1.90;;;9.90;84.00;;;;;;5077619;28;20054;-66
2023/04/11 04:24:30;;;;;;;10.57;2.30;;;9.90;84.00;;;;;;5078378;28;20024;-66
2023/04/11 04:26:59;;;;;;;10.35;2.25;;;9.90;83.80;;;;;;5084481;28;20456;-65
2023/04/11 04:29:32;;;;;;;8.18;1.70;;;9.90;83.50;;;;;;5085590;28;20067;-66
2023/04/11 04:31:58;;;;;;;8.05;2.33;;;10.00;83.40;;;;;;5086518;28;20039;-67
2023/04/11 04:34:27;;;;;;;9.98;2.33;;;10.00;83.20;;;;;;5088715;28;20028;-67
2023/04/11 04:36:58;;;;;;;11.63;2.10;;;10.00;82.80;;;;;;5079606;28;20021;-66
2023/04/11 04:39:24;;;;;;;11.57;3.20;;;10.00;82.70;;;;;;5088175;28;20020;-68
2023/04/11 04:41:56;;;;;;;7.07;1.92;;;10.00;82.50;;;;;;5083079;28;20210;-64
2023/04/11 04:44:23;;;;;;;9.70;2.05;;;10.00;82.50;;;;;;5081740;28;20080;-65
2023/04/11 04:46:52;;;;;;;6.13;1.80;;;10.00;82.50;;;;;;5085605;28;20077;-66
2023/04/11 04:49:18;;;;;;;8.07;2.30;;;10.00;82.50;;;;;;5073261;28;20027;-69
2023/04/11 04:51:43;;;;;;;6.65;1.95;;;9.90;82.40;;;;;;5086173;28;20208;-66
2023/04/11 04:54:09;;;;;;;7.38;1.90;;;10.00;82.40;;;;;;5091550;28;20466;-65
2023/04/11 04:56:34;;;;;;;7.38;2.10;;;10.00;82.30;;;;;;5088409;28;20056;-68
2023/04/11 04:59:00;;;;;;;6.93;2.00;;;10.00;82.30;;;;;;5076512;28;20032;-66
2023/04/11 05:01:25;;;;;;;9.20;2.20;;;10.00;82.10;;;;;;5087508;28;20024;-67
2023/04/11 05:03:57;;;;;;;9.00;2.25;;;10.00;82.00;;;;;;5091569;28;20050;-68
2023/04/11 05:06:27;;;;;;;9.93;2.20;;;9.90;81.80;;;;;;5087533;28;20035;-70
2023/04/11 05:08:55;;;;;;;9.18;2.22;;;9.90;81.80;;;;;;5082662;28;20029;-70
2023/04/11 05:11:20;;;;;;;8.40;2.33;;;10.00;81.80;;;;;;5088884;28;20028;-65
2023/04/11 05:13:46;;;;;;;6.25;2.08;;;9.90;81.60;;;;;;5086902;28;20455;-68
2023/04/11 05:16:11;;;;;;;10.23;2.45;;;9.90;81.50;;;;;;5086819;28;20107;-66
2023/04/11 05:18:37;;;;;;;9.23;2.05;;;9.90;81.20;;;;;;5084883;28;20016;-67
2023/04/11 05:21:04;;;;;;;8.07;1.98;;;9.90;81.10;;;;;;5090529;28;20070;-65
2023/04/11 05:23:29;;;;;;;7.38;1.95;;;9.90;81.10;;;;;;5089398;28;20712;-67
2023/04/11 05:25:55;;;;;;;7.80;1.80;;;9.90;81.00;;;;;;5083967;28;20032;-68
2023/04/11 05:28:20;;;;;;;9.00;1.90;;;9.90;81.60;;;;;;5083785;28;20032;-66
2023/04/11 05:30:46;;;;;;;6.32;1.80;;;9.90;80.70;;;;;;5081396;28;20435;-67
2023/04/11 05:33:13;;;;;;;8.27;1.70;;;9.90;80.60;;;;;;5090072;28;20043;-67
2023/04/11 05:35:39;;;;;;;5.15;1.52;;;9.80;80.10;;;;;;5091045;28;20027;-66
2023/04/11 05:38:05;;;;;;;9.05;1.92;;;9.80;80.10;;;;;;5090563;28;20025;-66
2023/04/11 05:40:30;;;;;;;6.97;1.75;;;9.80;79.70;;;;;;5084185;28;20024;-68
2023/04/11 05:42:56;;;;;;;5.90;1.70;;;10.10;79.90;;;;;;5084703;28;20028;-67
2023/04/11 05:45:22;;;;;;;6.65;1.80;;;10.50;78.30;;;;;;5075826;28;20032;-68
2023/04/11 05:47:47;;;;;;;6.70;2.00;;;10.80;76.30;;;;;;5088406;28;20035;-67
2023/04/11 05:50:13;;;;;;;6.25;1.67;;;10.90;75.20;;;;;;5090550;28;20035;-66
2023/04/11 05:52:39;;;;;;;6.43;1.65;;;11.00;74.90;;;;;;5089509;28;20511;-67
2023/04/11 05:55:05;;;;;;;6.03;1.48;;;11.00;74.30;;;;;;5089568;28;20170;-66
2023/04/11 05:57:31;;;;;;;7.40;1.77;;;11.20;73.90;;;;;;5085781;28;20107;-68
2023/04/11 05:59:56;;;;;;;4.97;1.80;;;11.40;73.30;;;;;;5084952;28;20095;-67
2023/04/11 06:02:22;;;;;;;8.52;1.67;;;11.90;72.30;;;;;;5079277;28;20146;-66
2023/04/11 06:04:48;;;;;;;6.25;1.98;;;12.90;70.00;;;;;;5089602;28;20055;-67
2023/04/11 06:07:13;;;;;;;6.40;1.77;;;13.70;66.90;;;;;;5088841;28;20031;-67
2023/04/11 06:09:41;;;;;;;6.68;1.80;;;14.30;64.10;;;;;;5091105;28;20031;-67
2023/04/11 06:12:07;;;;;;;6.68;1.65;;;15.10;62.50;;;;;;5089768;28;20024;-67
2023/04/11 06:14:32;;;;;;;6.63;1.60;;;15.80;60.40;;;;;;5090866;28;20437;-68
2023/04/11 06:16:58;;;;;;;6.65;1.50;;;16.40;58.50;;;;;;5087374;28;20158;-67
2023/04/11 06:19:24;;;;;;;8.48;1.70;;;17.10;57.30;;;;;;5087611;28;20059;-68
2023/04/11 06:21:50;;;;;;;4.93;1.58;;;17.60;55.20;;;;;;5077572;28;20029;-66
2023/04/11 06:24:18;;;;;;;7.18;1.70;;;18.10;54.50;;;;;;5087491;28;20063;-65
2023/04/11 06:26:50;;;;;;;5.50;1.50;;;18.50;53.00;;;;;;5085775;27;20401;-66
2023/04/11 06:29:16;;;;;;;4.93;1.42;;;18.40;52.00;;;;;;5071507;28;20086;-67
2023/04/11 06:31:42;;;;;;;4.50;1.40;;;18.80;52.40;;;;;;5076815;28;20101;-68
2023/04/11 06:34:07;;;;;;;5.68;1.58;;;19.40;50.60;;;;;;5084415;28;20739;-67
2023/04/11 06:36:33;;;;;;;3.67;1.52;;;19.50;49.90;;;;;;5065416;28;20029;-67
2023/04/11 06:38:58;;;;;;;4.05;1.20;;;19.60;49.70;;;;;;5066667;28;20383;-67
2023/04/11 06:41:24;;;;;;;6.22;1.50;;;19.90;49.10;;;;;;5071647;28;20024;-71
2023/04/11 06:43:49;;;;;;;2.75;1.10;;;20.20;48.40;;;;;;5070675;28;20025;-70
2023/04/11 06:46:15;;;;;;;5.68;1.60;;;20.40;47.20;;;;;;5067197;28;20032;-66
2023/04/11 06:48:40;;;;;;;4.43;1.40;;;20.60;48.10;;;;;;5061360;28;20031;-65
2023/04/11 06:51:07;;;;;;;4.28;1.40;;;20.80;46.60;;;;;;5056415;28;20454;-66
2023/04/11 06:53:33;;;;;;;7.15;1.70;;;21.00;46.40;;;;;;5058309;28;20028;-65
2023/04/11 06:56:00;;;;;;;6.35;1.70;;;21.20;45.30;;;;;;5060065;28;20151;-67
2023/04/11 06:58:25;;;;;;;6.03;1.70;;;21.20;45.30;;;;;;5052298;28;20017;-67
2023/04/11 07:00:51;;;;;;;4.70;1.20;;;21.40;44.70;;;;;;5062752;28;20033;-66
2023/04/11 07:03:18;;;;;;;4.07;1.55;;;21.70;44.60;;;;;;5061626;28;20486;-68
2023/04/11 07:05:44;;;;;;;6.53;1.90;;;21.90;44.20;;;;;;5060977;28;20068;-66
2023/04/11 07:08:09;;;;;;;5.75;1.83;;;21.70;43.50;;;;;;5065181;28;20048;-67
2023/04/11 07:10:35;;;;;;;4.82;1.70;;;21.90;43.70;;;;;;5062847;28;20025;-67
2023/04/11 07:13:00;;;;;;;5.80;1.67;;;21.90;43.20;;;;;;5055329;28;20104;-70
2023/04/11 07:15:26;;;;;;;5.03;1.55;;;21.90;43.10;;;;;;5058987;28;20444;-68
2023/04/11 07:17:52;;;;;;;6.68;2.00;;;21.90;43.20;;;;;;5060951;28;20099;-67
2023/04/11 07:20:17;;;;;;;8.10;2.17;;;22.10;42.90;;;;;;5058700;28;20020;-68
2023/04/11 07:22:43;;;;;;;5.82;1.58;;;22.10;42.20;;;;;;5062443;28;20032;-67
2023/04/11 07:25:09;;;;;;;4.70;1.80;;;22.00;42.60;;;;;;5061350;28;20053;-68
2023/04/11 07:27:35;;;;;;;7.65;1.70;;;21.80;42.80;;;;;;5064874;28;20463;-67
2023/04/11 07:30:01;;;;;;;5.03;1.75;;;21.20;43.20;;;;;;5058460;28;20089;-70
2023/04/11 07:32:27;;;;;;;4.68;1.52;;;20.90;43.20;;;;;;5053656;28;20020;-67
2023/04/11 07:34:52;;;;;;;5.55;1.70;;;21.10;44.30;;;;;;5071435;28;20529;-66
2023/04/11 07:37:18;;;;;;;7.18;2.25;;;19.90;44.60;;;;;;5047863;28;20025;-67
2023/04/11 07:39:45;;;;;;;4.53;1.65;;;18.10;46.10;;;;;;5044385;28;20036;-67
2023/04/11 07:42:11;;;;;;;7.53;1.60;;;16.50;49.90;;;;;;5029135;28;20067;-66
2023/04/11 07:44:36;;;;;;;7.30;1.73;;;15.50;51.90;;;;;;5058191;28;20048;-67
2023/04/11 07:47:02;;;;;;;7.00;2.10;;;14.80;53.60;;;;;;5049624;28;20021;-67
2023/04/11 07:49:27;;;;;;;5.55;1.60;;;14.70;54.60;;;;;;5047334;28;20111;-67
2023/04/11 07:51:53;;;;;;;6.07;1.85;;;16.50;52.70;;;;;;5046887;28;20025;-66
2023/04/11 07:54:18;;;;;;;7.10;1.77;;;17.90;49.50;;;;;;5044443;28;20021;-69
2023/04/11 07:56:44;;;;;;;5.45;1.60;;;18.80;47.30;;;;;;5045253;28;20037;-69
2023/04/11 07:59:12;;;;;;;6.65;2.05;;;19.20;46.70;;;;;;5047282;28;21142;-67
2023/04/11 08:01:38;;;;;;;6.57;2.15;;;20.00;46.00;;;;;;5051013;28;20039;-69
2023/04/11 08:04:04;;;;;;;5.68;1.60;;;20.50;44.30;;;;;;5052664;28;20411;-66
2023/04/11 08:06:30;;;;;;;3.50;1.27;;;20.60;43.40;;;;;;5043880;28;20066;-66
2023/04/11 08:08:57;;;;;;;6.72;1.77;;;21.10;43.20;;;;;;5049325;28;20379;-68
2023/04/11 08:11:23;;;;;;;6.78;1.48;;;21.10;42.60;;;;;;5042219;28;20102;-67
2023/04/11 08:13:49;;;;;;;7.32;2.05;;;19.50;42.80;;;;;;5046980;28;20056;-69
2023/04/11 08:16:14;;;;;;;7.53;1.90;;;18.00;45.60;;;;;;5048873;28;20049;-65
2023/04/11 08:18:41;;;;;;;5.53;1.80;;;17.90;46.50;;;;;;5028652;28;20044;-66
2023/04/11 08:21:08;;;;;;;6.78;1.90;;;18.40;46.20;;;;;;5032940;28;20052;-67
2023/04/11 08:23:34;;;;;;;5.97;1.85;;;18.30;44.80;;;;;;5052799;28;20037;-68
2023/04/11 08:25:59;;;;;;;6.93;1.60;;;17.40;46.30;;;;;;5049009;28;20678;-66
2023/04/11 08:28:25;;;;;;;4.13;1.30;;;17.00;46.20;;;;;;5049638;28;20016;-68
2023/04/11 08:30:57;;;;;;;6.10;1.70;;;17.60;46.30;;;;;;5046372;28;20013;-67
2023/04/11 08:33:24;;;;;;;4.93;1.52;;;17.10;45.50;;;;;;5050068;28;20021;-67
2023/04/11 08:35:50;;;;;;;3.25;1.30;;;17.50;46.00;;;;;;5049263;28;20029;-66
2023/04/11 08:38:15;;;;;;;3.67;1.48;;;18.40;45.30;;;;;;5047778;28;20035;-67
2023/04/11 08:40:41;;;;;;;7.57;1.80;;;19.10;43.70;;;;;;5048973;28;20033;-67
2023/04/11 08:43:11;;;;;;;8.05;2.25;;;19.20;43.70;;;;;;5043520;28;20134;-65
2023/04/11 08:45:40;;;;;;;5.78;1.70;;;19.40;43.00;;;;;;5042329;28;20708;-65
2023/04/11 08:48:07;;;;;;;5.22;1.60;;;18.60;44.00;;;;;;5046396;28;20033;-66
2023/04/11 08:50:34;;;;;;;6.43;1.73;;;18.70;44.40;;;;;;5045560;28;20056;-66
2023/04/11 08:53:03;;;;;;;6.47;1.70;;;17.70;45.80;;;;;;5047100;28;20039;-66
2023/04/11 08:55:29;;;;;;;6.25;2.00;;;18.10;46.10;;;;;;5048595;28;20028;-65
2023/04/11 08:57:58;;;;;;;5.47;1.83;;;17.00;46.30;;;;;;5042991;28;20032;-66
2023/04/11 09:00:25;;;;;;;6.05;1.63;;;16.40;47.70;;;;;;5043679;28;20594;-66
2023/04/11 09:02:59;;;;;;;5.25;1.73;;;15.70;48.50;;;;;;5049354;28;20067;-69
2023/04/11 09:05:26;;;;;;;7.03;1.95;;;14.90;50.00;;;;;;5025367;28;20033;-66
2023/04/11 09:07:53;;;;;;;5.28;1.60;;;14.40;51.00;;;;;;5041254;28;20556;-67
2023/04/11 09:10:19;;;;;;;4.85;1.70;;;14.20;51.60;;;;;;5047998;28;20033;-66
2023/04/11 09:12:45;;;;;;;6.43;1.75;;;14.00;52.20;;;;;;5048379;28;20021;-66
2023/04/11 09:15:22;;;;;;;5.38;1.70;;;13.80;52.50;;;;;;5046462;28;20094;-66
2023/04/11 09:17:48;;;;;;;6.57;1.70;;;13.70;52.70;;;;;;5048134;28;20029;-66
2023/04/11 09:20:28;;;;;;;4.47;1.50;;;13.60;53.20;;;;;;5043979;28;20472;-66
2023/04/11 09:22:55;;;;;;;6.05;1.90;;;13.60;53.70;;;;;;5043103;28;20036;-66
2023/04/11 09:25:21;;;;;;;6.10;1.90;;;13.70;54.00;;;;;;5043411;28;20502;-69
2023/04/11 09:27:48;;;;;;;5.63;1.70;;;13.80;54.20;;;;;;5048266;28;20028;-67
2023/04/11 09:30:32;;;;;;;6.43;2.05;;;13.90;54.40;;;;;;5046779;28;20025;-66
2023/04/11 09:32:58;;;;;;;4.78;1.60;;;13.80;53.30;;;;;;5044840;28;20100;-66
2023/04/11 09:35:27;;;;;;;6.00;1.80;;;13.70;53.50;;;;;;5046962;28;20115;-66
2023/04/11 09:37:56;;;;;;;6.28;1.75;;;13.70;54.20;;;;;;5046460;28;20033;-66
2023/04/11 09:40:24;;;;;;;5.28;1.83;;;13.70;54.80;;;;;;5046351;28;20094;-66
2023/04/11 09:43:02;;;;;;;3.80;1.60;;;13.70;54.40;;;;;;5039955;28;20025;-65
2023/04/11 09:45:30;;;;;;;5.35;1.60;;;13.80;54.80;;;;;;5045371;28;20559;-66
2023/04/11 09:47:58;;;;;;;7.47;2.00;;;14.00;54.60;;;;;;5047072;28;20399;-67
2023/04/11 09:50:25;;;;;;;4.30;1.40;;;14.10;54.00;;;;;;5048248;28;20916;-65
2023/04/11 09:52:51;;;;;;;6.75;1.75;;;14.10;53.50;;;;;;5035581;28;20144;-67
2023/04/11 09:55:21;;;;;;;6.38;1.85;;;14.20;53.30;;;;;;5047293;28;20025;-67
2023/04/11 09:57:49;;;;;;;5.38;1.67;;;14.20;53.20;;;;;;5054712;28;20028;-66
2023/04/11 10:00:20;;;;;;;5.28;1.55;;;14.10;53.10;;;;;;5045876;28;20570;-68
2023/04/11 10:02:48;;;;;;;4.50;1.70;;;14.10;53.50;;;;;;5040417;28;20392;-67
2023/04/11 10:05:17;;;;;;;3.92;1.55;;;14.20;53.60;;;;;;5049654;28;20483;-66
2023/04/11 10:07:55;;;;;;;6.20;1.75;;;14.20;53.10;;;;;;5042123;28;20043;-67
2023/04/11 10:10:23;;;;;;;4.35;1.40;;;14.20;52.20;;;;;;5048199;28;20506;-68
2023/04/11 10:12:49;;;;;;;4.00;1.77;;;14.20;52.00;;;;;;5050491;28;20398;-67
2023/04/11 10:15:16;;;;;;;4.20;1.40;;;14.20;51.50;;;;;;5050168;28;20028;-65
2023/04/11 10:18:01;;;;;;;6.15;1.50;;;14.20;50.70;;;;;;5050716;28;20047;-68
2023/04/11 10:20:47;;;;;;;4.68;1.40;;;14.10;50.90;;;;;;5037451;28;20021;-65
2023/04/11 10:23:13;;;;;;;2.97;1.27;;;14.10;51.10;;;;;;5035045;28;20037;-66
2023/04/11 10:25:52;;;;;;;5.15;1.50;;;14.00;51.20;;;;;;5049299;28;20032;-65
2023/04/11 10:28:36;;;;;;;2.97;1.23;;;13.90;50.80;;;;;;5047837;28;20083;-66
2023/04/11 10:31:12;;;;;;;4.55;1.40;;;13.70;51.00;;;;;;5030914;28;20549;-68
2023/04/11 10:33:59;;;;;;;4.18;1.10;;;13.60;50.80;;;;;;5048307;28;20029;-68
2023/04/11 10:36:25;;;;;;;3.92;1.17;;;13.40;50.30;;;;;;5047080;28;20087;-67
2023/04/11 10:38:52;;;;;;;5.15;1.63;;;13.30;50.30;;;;;;5047382;28;20529;-68
2023/04/11 10:41:27;;;;;;;4.72;1.30;;;13.30;49.60;;;;;;5046796;28;20116;-69
2023/04/11 10:44:12;;;;;;;4.32;1.13;;;13.30;49.90;;;;;;5043705;28;20627;-69
2023/04/11 10:46:45;;;;;;;4.85;1.13;;;13.50;50.00;;;;;;5047646;28;20055;-67
2023/04/11 10:49:11;;;;;;;5.18;1.38;;;13.70;50.20;;;;;;5032571;28;20025;-67
2023/04/11 10:51:37;;;;;;;3.33;1.42;;;13.70;49.60;;;;;;5047672;28;20499;-67
2023/04/11 10:54:03;;;;;;;3.30;1.50;;;13.80;48.90;;;;;;5050365;28;20035;-67
2023/04/11 10:56:53;;;;;;;5.45;1.40;;;13.80;48.30;;;;;;5040893;28;20021;-68
2023/04/11 10:59:30;;;;;;;3.25;1.20;;;13.80;48.30;;;;;;5052126;28;20033;-66
2023/04/11 11:01:57;;;;;;;4.38;1.20;;;13.80;47.80;;;;;;5049217;28;20040;-67
2023/04/11 11:04:31;;;;;;;5.20;1.30;;;13.80;46.70;;;;;;5047478;28;20491;-69
2023/04/11 11:06:58;;;;;;;7.00;1.50;;;13.80;47.10;;;;;;5043470;28;20056;-66
2023/04/11 11:09:24;;;;;;;3.30;1.10;;;13.90;47.40;;;;;;5048298;28;20096;-66
2023/04/11 11:12:09;;;;;;;4.25;1.23;;;14.10;47.70;;;;;;5045875;28;20371;-69
2023/04/11 11:14:36;;;;;;;4.90;1.30;;;14.20;47.10;;;;;;5049371;28;20032;-66
2023/04/11 11:17:02;;;;;;;3.20;1.25;;;14.30;47.00;;;;;;5051563;28;20043;-67
2023/04/11 11:19:28;;;;;;;3.28;1.20;;;14.30;45.60;;;;;;5057521;28;20561;-67
2023/04/11 11:21:54;;;;;;;3.65;1.30;;;14.30;45.70;;;;;;5050721;28;20645;-68
2023/04/11 11:24:24;;;;;;;4.85;1.48;;;14.40;46.30;;;;;;5057034;28;20028;-67
2023/04/11 11:26:51;;;;;;;3.95;1.20;;;14.40;46.20;;;;;;5050988;28;20033;-67
2023/04/11 11:29:37;;;;;;;3.53;1.15;;;14.30;46.00;;;;;;5051494;28;20029;-69
2023/04/11 11:32:03;;;;;;;4.10;1.27;;;14.30;45.90;;;;;;5047476;28;20396;-71
2023/04/11 11:34:30;;;;;;;3.80;1.30;;;14.40;45.60;;;;;;5051966;28;20017;-68
2023/04/11 11:36:58;;;;;;;5.15;1.50;;;14.60;45.90;;;;;;5048421;28;20082;-66
2023/04/11 11:39:24;;;;;;;5.05;1.35;;;14.50;45.60;;;;;;5055135;28;20388;-66
2023/04/11 11:41:51;;;;;;;7.30;2.28;;;14.40;46.00;;;;;;5050497;28;20033;-66
2023/04/11 11:44:22;;;;;;;4.28;1.35;;;14.20;46.20;;;;;;5039125;28;20071;-66
2023/04/11 11:47:03;;;;;;;2.63;1.20;;;14.10;46.60;;;;;;5049579;28;20175;-70
2023/04/11 11:49:53;;;;;;;3.50;1.30;;;14.00;47.00;;;;;;5044450;28;20033;-65
2023/04/11 11:52:39;;;;;;;5.47;1.60;;;14.10;47.40;;;;;;5048259;28;20020;-66
2023/04/11 11:55:30;;;;;;;5.40;1.50;;;14.20;47.70;;;;;;5050346;28;20025;-66
2023/04/11 11:58:00;;;;;;;5.30;1.60;;;14.30;47.30;;;;;;5052318;28;20037;-66
2023/04/11 12:00:27;;;;;;;5.43;1.50;;;14.20;47.40;;;;;;5048453;28;20017;-67
2023/04/11 12:02:55;;;;;;;5.63;1.67;;;14.10;47.40;;;;;;5055960;28;20086;-66
2023/04/11 12:05:23;;;;;;;4.65;1.58;;;14.10;47.50;;;;;;5039689;28;20025;-67
2023/04/11 12:07:53;;;;;;;6.20;1.85;;;14.20;47.20;;;;;;5049697;28;20021;-67
2023/04/11 12:10:19;;;;;;;6.28;1.50;;;14.40;47.30;;;;;;5042427;28;20017;-66
2023/04/11 12:12:48;;;;;;;4.28;1.50;;;14.40;47.20;;;;;;5049072;28;20032;-68
2023/04/11 12:15:17;;;;;;;6.72;1.50;;;14.40;46.90;;;;;;5045440;28;20461;-68
2023/04/11 12:17:46;;;;;;;6.78;1.77;;;14.40;47.10;;;;;;5046349;28;20039;-67
2023/04/11 12:20:14;;;;;;;7.47;1.67;;;14.60;46.90;;;;;;5048077;28;20177;-68
2023/04/11 12:22:40;;;;;;;4.78;1.70;;;14.70;47.00;;;;;;5047990;28;20029;-65
2023/04/11 12:25:10;;;;;;;4.75;1.50;;;14.90;47.10;;;;;;5045623;28;20434;-65
2023/04/11 12:27:37;;;;;;;6.20;1.90;;;14.90;47.10;;;;;;5044138;28;20017;-66
2023/04/11 12:30:03;;;;;;;4.05;1.38;;;15.10;47.30;;;;;;5048226;28;20029;-66
2023/04/11 12:32:31;;;;;;;3.70;1.50;;;15.40;47.10;;;;;;5029434;28;20120;-66
2023/04/11 12:34:57;;;;;;;3.97;1.30;;;15.60;46.80;;;;;;5051227;28;20040;-65
2023/04/11 12:37:22;;;;;;;4.70;1.60;;;15.70;45.50;;;;;;5049860;28;20028;-66
2023/04/11 12:39:48;;;;;;;3.53;1.50;;;15.80;44.70;;;;;;5049549;28;20098;-64
2023/04/11 12:42:14;;;;;;;3.20;1.48;;;15.90;43.90;;;;;;5048230;28;20021;-65
2023/04/11 12:44:40;;;;;;;4.10;1.30;;;16.00;44.20;;;;;;5051327;28;20579;-66
2023/04/11 12:47:06;;;;;;;3.35;1.50;;;16.20;44.40;;;;;;5046401;28;20021;-65